createdAt,value
2022-08-05T00:01:48.792Z,0.40
2022-08-05T00:04:55.595Z,0.30
2022-08-05T00:08:00.185Z,0.40
2022-08-05T00:10:50.115Z,0.30
2022-08-05T00:13:10.113Z,0.40
2022-08-05T00:15:56.310Z,0.30
2022-08-05T00:18:10.256Z,0.40
2022-08-05T00:20:57.979Z,0.40
2022-08-05T00:24:05.053Z,0.50
2022-08-05T00:26:20.957Z,0.40
2022-08-05T00:28:39.670Z,0.50
2022-08-05T00:31:04.115Z,0.30
2022-08-05T00:34:55.332Z,0.50
2022-08-05T00:36:16.516Z,0.40
2022-08-05T00:38:46.062Z,0.30
2022-08-05T00:41:03.884Z,0.40
2022-08-05T00:43:47.062Z,0.30
2022-08-05T00:46:45.817Z,0.30
2022-08-05T00:49:07.872Z,0.30
2022-08-05T00:52:05.442Z,0.30
2022-08-05T00:54:15.842Z,0.50
2022-08-05T00:56:28.062Z,0.30
2022-08-05T00:58:47.565Z,0.40
2022-08-05T01:01:08.658Z,0.40
2022-08-05T01:03:59.044Z,0.50
2022-08-05T01:06:48.725Z,0.40
2022-08-05T01:09:11.638Z,0.50
2022-08-05T01:11:50.041Z,0.40
2022-08-05T01:14:37.683Z,0.40
2022-08-05T01:17:26.791Z,0.30
2022-08-05T01:20:24.137Z,0.60
2022-08-05T01:22:53.370Z,0.40
2022-08-05T01:25:57.403Z,0.30
2022-08-05T01:28:50.541Z,0.40
2022-08-05T01:32:02.454Z,0.40
2022-08-05T01:35:13.474Z,0.30
2022-08-05T01:38:26.782Z,0.30
2022-08-05T01:41:21.710Z,0.60
2022-08-05T01:43:31.293Z,0.40
2022-08-05T01:46:07.549Z,0.40
2022-08-05T01:49:24.253Z,0.30
2022-08-05T01:51:37.770Z,0.30
2022-08-05T01:53:57.743Z,0.40
2022-08-05T01:58:11.438Z,0.40
2022-08-05T01:59:56.746Z,0.30
2022-08-05T02:02:30.652Z,0.30
2022-08-05T02:04:49.674Z,0.40
2022-08-05T02:07:41.594Z,0.30
2022-08-05T02:10:18.273Z,0.30
2022-08-05T02:13:16.151Z,0.30
2022-08-05T02:15:37.470Z,0.30
2022-08-05T02:18:31.016Z,0.30
2022-08-05T02:20:51.830Z,0.40
2022-08-05T02:23:46.311Z,0.40
2022-08-05T02:26:21.890Z,0.30
2022-08-05T02:28:38.406Z,0.30
2022-08-05T02:30:58.953Z,0.30
2022-08-05T02:33:42.625Z,0.40
2022-08-05T02:36:15.522Z,0.40
2022-08-05T02:38:42.829Z,0.40
2022-08-05T02:41:01.221Z,0.40
2022-08-05T02:44:05.915Z,0.30
2022-08-05T02:46:59.690Z,0.40
2022-08-05T02:49:12.388Z,0.50
2022-08-05T02:52:04.503Z,0.40
2022-08-05T02:54:51.187Z,0.30
2022-08-05T02:58:19.949Z,0.20
2022-08-05T03:00:49.746Z,0.50
2022-08-05T03:04:02.552Z,0.40
2022-08-05T03:06:54.853Z,0.40
2022-08-05T03:10:16.160Z,0.40
2022-08-05T03:12:53.838Z,0.30
2022-08-05T03:15:27.545Z,0.40
2022-08-05T03:17:54.205Z,0.50
2022-08-05T03:20:15.847Z,0.40
2022-08-05T03:22:55.371Z,0.40
2022-08-05T03:26:04.530Z,0.40
2022-08-05T03:28:14.618Z,0.40
2022-08-05T03:30:58.879Z,0.40
2022-08-05T03:33:50.876Z,0.40
2022-08-05T03:36:30.451Z,0.30
2022-08-05T03:38:56.813Z,0.30
2022-08-05T03:41:32.975Z,0.40
2022-08-05T03:44:09.202Z,0.50
2022-08-05T03:46:46.619Z,0.30
2022-08-05T03:49:31.023Z,0.50
2022-08-05T03:52:49.193Z,0.50
2022-08-05T03:56:04.593Z,0.40
2022-08-05T03:58:51.219Z,0.40
2022-08-05T04:01:34.557Z,0.50
2022-08-05T04:04:34.212Z,0.50
2022-08-05T04:07:24.904Z,0.50
2022-08-05T04:09:53.669Z,0.90
2022-08-05T04:12:24.481Z,0.40
2022-08-05T04:14:57.710Z,0.40
2022-08-05T04:17:57.325Z,0.50
2022-08-05T04:20:20.102Z,0.30
2022-08-05T04:22:44.993Z,0.50
2022-08-05T04:25:38.331Z,0.60
2022-08-05T04:28:12.810Z,0.40
2022-08-05T04:30:39.867Z,0.40
2022-08-05T04:33:03.913Z,0.60
2022-08-05T04:36:10.698Z,0.40
2022-08-05T04:38:44.817Z,0.50
2022-08-05T04:41:13.982Z,0.70
2022-08-05T04:44:32.201Z,1.00
2022-08-05T04:46:59.422Z,0.50
2022-08-05T04:49:12.124Z,1.50
2022-08-05T04:52:00.241Z,0.90
2022-08-05T04:54:30.671Z,1.00
2022-08-05T04:56:51.377Z,0.60
2022-08-05T04:59:33.616Z,0.40
2022-08-05T05:02:37.225Z,0.40
2022-08-05T05:05:16.987Z,0.70
2022-08-05T05:08:14.154Z,0.40
2022-08-05T05:10:56.168Z,0.40
2022-08-05T05:13:12.673Z,0.50
2022-08-05T05:16:05.961Z,0.40
2022-08-05T05:19:16.538Z,0.70
2022-08-05T05:22:24.192Z,0.40
2022-08-05T05:24:58.376Z,0.40
2022-08-05T05:27:13.225Z,0.70
2022-08-05T05:30:05.024Z,0.40
2022-08-05T05:32:31.495Z,0.50
2022-08-05T05:34:38.357Z,0.50
2022-08-05T05:37:37.370Z,0.40
2022-08-05T05:40:40.571Z,0.50
2022-08-05T05:42:58.335Z,0.40
2022-08-05T05:45:33.393Z,0.60
2022-08-05T05:48:05.325Z,0.50
2022-08-05T05:50:48.485Z,0.50
2022-08-05T05:53:54.446Z,1.30
2022-08-05T05:56:35.628Z,0.40
2022-08-05T05:58:49.261Z,0.40
2022-08-05T06:01:57.368Z,0.30
2022-08-05T06:04:18.926Z,0.60
2022-08-05T06:06:50.842Z,0.50
2022-08-05T06:09:25.733Z,0.40
2022-08-05T06:12:02.717Z,0.40
2022-08-05T06:14:52.473Z,0.40
2022-08-05T06:17:52.913Z,0.60
2022-08-05T06:20:41.755Z,0.50
2022-08-05T06:23:01.848Z,0.40
2022-08-05T06:26:13.008Z,0.70
2022-08-05T06:28:38.073Z,0.40
2022-08-05T06:31:17.825Z,0.40
2022-08-05T06:34:07.136Z,0.50
2022-08-05T06:36:27.072Z,0.40
2022-08-05T06:39:16.688Z,0.50
2022-08-05T06:41:30.862Z,0.40
2022-08-05T06:44:03.495Z,0.40
2022-08-05T06:46:45.726Z,0.40
2022-08-05T06:49:01.404Z,0.40
2022-08-05T06:51:49.527Z,0.50
2022-08-05T06:54:37.666Z,0.40
2022-08-05T06:56:55.063Z,0.70
2022-08-05T06:59:28.493Z,0.40
2022-08-05T07:02:07.178Z,0.50
2022-08-05T07:04:25.124Z,0.60
2022-08-05T07:07:06.279Z,0.40
2022-08-05T07:09:58.362Z,0.40
2022-08-05T07:12:06.050Z,0.60
2022-08-05T07:14:58.042Z,0.60
2022-08-05T07:17:59.467Z,0.50
2022-08-05T07:20:33.464Z,0.40
2022-08-05T07:23:26.545Z,0.60
2022-08-05T07:26:02.237Z,0.50
2022-08-05T07:28:35.758Z,0.50
2022-08-05T07:30:52.865Z,0.40
2022-08-05T07:33:37.045Z,0.50
2022-08-05T07:36:01.996Z,0.50
2022-08-05T07:38:32.196Z,0.70
2022-08-05T07:42:07.209Z,0.50
2022-08-05T07:43:46.599Z,0.50
2022-08-05T07:45:56.993Z,0.50
2022-08-05T07:49:02.707Z,0.50
2022-08-05T07:51:23.848Z,0.60
2022-08-05T07:54:31.082Z,0.80
2022-08-05T07:57:42.012Z,0.70
2022-08-05T08:00:11.520Z,0.70
2022-08-05T08:03:15.016Z,0.70
2022-08-05T08:05:20.071Z,0.70
2022-08-05T08:07:59.018Z,0.50
2022-08-05T08:11:27.726Z,0.70
2022-08-05T08:14:10.155Z,0.80
2022-08-05T08:16:57.651Z,0.60
2022-08-05T08:19:09.445Z,0.60
2022-08-05T08:21:50.652Z,0.60
2022-08-05T08:24:14.046Z,0.50
2022-08-05T08:26:58.950Z,0.80
2022-08-05T08:30:03.207Z,0.70
2022-08-05T08:31:39.114Z,0.50
2022-08-05T08:34:14.463Z,0.60
2022-08-05T08:36:49.092Z,0.60
2022-08-05T08:39:49.946Z,0.70
2022-08-05T08:42:32.381Z,0.80
2022-08-05T08:45:22.625Z,0.60
2022-08-05T08:48:06.179Z,0.60
2022-08-05T08:50:33.050Z,0.60
2022-08-05T08:53:12.644Z,0.70
2022-08-05T08:56:02.613Z,0.80
2022-08-05T08:58:19.139Z,0.50
2022-08-05T09:01:18.051Z,0.70
2022-08-05T09:03:40.396Z,0.80
2022-08-05T09:06:07.531Z,0.70
2022-08-05T09:08:40.260Z,0.70
2022-08-05T09:11:14.299Z,0.70
2022-08-05T09:13:31.456Z,0.70
2022-08-05T09:15:54.111Z,0.70
2022-08-05T09:18:13.386Z,0.70
2022-08-05T09:21:20.682Z,0.60
2022-08-05T09:23:47.896Z,0.70
2022-08-05T09:26:20.793Z,0.80
2022-08-05T09:28:55.066Z,0.90
2022-08-05T09:32:41.920Z,0.70
2022-08-05T09:34:10.517Z,0.70
2022-08-05T09:36:18.500Z,0.70
2022-08-05T09:38:30.493Z,0.70
2022-08-05T09:40:55.297Z,0.60
2022-08-05T09:43:40.487Z,0.90
2022-08-05T09:46:06.247Z,0.90
2022-08-05T09:49:18.740Z,0.80
2022-08-05T09:51:38.536Z,1.00
2022-08-05T09:54:06.424Z,0.70
2022-08-05T09:56:57.525Z,0.90
2022-08-05T09:59:18.441Z,0.90
2022-08-05T10:01:45.801Z,0.60
2022-08-05T10:04:38.538Z,0.80
2022-08-05T10:07:20.134Z,0.60
2022-08-05T10:10:14.942Z,1.00
2022-08-05T10:13:09.972Z,0.90
2022-08-05T10:15:26.241Z,0.60
2022-08-05T10:17:40.709Z,0.70
2022-08-05T10:20:04.533Z,0.80
2022-08-05T10:22:30.076Z,1.00
2022-08-05T10:25:14.447Z,0.50
2022-08-05T10:28:13.773Z,0.70
2022-08-05T10:31:20.849Z,0.50
2022-08-05T10:33:02.007Z,1.10
2022-08-05T10:35:43.811Z,0.70
2022-08-05T10:38:23.751Z,0.70
2022-08-05T10:41:13.636Z,0.80
2022-08-05T10:43:35.842Z,0.80
2022-08-05T10:46:11.854Z,1.00
2022-08-05T10:51:29.738Z,1.10
2022-08-05T10:54:23.414Z,1.00
2022-08-05T10:56:54.389Z,0.80
2022-08-05T10:59:12.129Z,1.00
2022-08-05T11:01:55.522Z,0.80
2022-08-05T11:04:30.898Z,0.90
2022-08-05T11:07:07.569Z,0.70
2022-08-05T11:09:32.271Z,0.70
2022-08-05T11:12:19.153Z,1.00
2022-08-05T11:18:00.520Z,0.80
2022-08-05T11:20:16.575Z,0.90
2022-08-05T11:22:54.060Z,0.70
2022-08-05T11:26:06.036Z,0.70
2022-08-05T11:28:24.366Z,0.80
2022-08-05T11:30:59.209Z,0.90
2022-08-05T11:33:34.606Z,1.10
2022-08-05T11:36:08.653Z,1.00
2022-08-05T11:38:50.953Z,1.20
2022-08-05T11:41:34.445Z,1.00
2022-08-05T11:44:04.344Z,1.40
2022-08-05T11:48:51.060Z,0.80
2022-08-05T11:51:00.763Z,0.80
2022-08-05T11:53:09.847Z,0.70
2022-08-05T11:55:19.534Z,0.80
2022-08-05T11:58:12.048Z,0.80
2022-08-05T12:00:32.172Z,0.70
2022-08-05T12:02:50.885Z,0.80
2022-08-05T12:04:59.383Z,0.70
2022-08-05T12:07:09.211Z,0.90
2022-08-05T12:09:21.092Z,1.00
2022-08-05T12:11:49.461Z,0.70
2022-08-05T12:14:04.042Z,1.00
2022-08-05T12:16:14.418Z,0.90
2022-08-05T12:18:38.834Z,0.70
2022-08-05T12:20:46.353Z,0.70
2022-08-05T12:22:53.102Z,1.20
2022-08-05T12:25:00.409Z,1.00
2022-08-05T12:27:09.877Z,1.00
2022-08-05T12:29:38.758Z,1.00
2022-08-05T12:31:53.964Z,0.80
2022-08-05T12:36:09.254Z,1.00
2022-08-05T12:38:15.952Z,0.90
2022-08-05T12:40:45.738Z,0.90
2022-08-05T12:43:12.718Z,0.90
2022-08-05T12:45:50.132Z,0.90
2022-08-05T12:48:01.377Z,1.10
2022-08-05T12:51:02.125Z,0.90
2022-08-05T12:53:23.955Z,1.20
2022-08-05T12:55:59.297Z,1.10
2022-08-05T12:58:49.001Z,0.80
2022-08-05T13:02:00.490Z,1.00
2022-08-05T13:03:32.301Z,1.00
2022-08-05T13:06:02.688Z,1.00
2022-08-05T13:08:21.993Z,1.10
2022-08-05T13:10:50.565Z,1.20
2022-08-05T13:14:06.216Z,1.20
2022-08-05T13:16:12.230Z,0.90
2022-08-05T13:19:51.773Z,0.90
2022-08-05T13:21:57.768Z,1.20
2022-08-05T13:24:09.065Z,1.10
2022-08-05T13:26:16.168Z,1.00
2022-08-05T13:28:28.431Z,1.00
2022-08-05T13:30:39.249Z,1.00
2022-08-05T13:32:50.629Z,1.00
2022-08-05T13:35:08.356Z,1.00
2022-08-05T13:37:15.003Z,0.90
2022-08-05T13:40:16.646Z,1.00
2022-08-05T13:42:13.995Z,1.00
2022-08-05T13:44:28.569Z,1.00
2022-08-05T13:47:02.035Z,1.00
2022-08-05T13:49:14.853Z,1.00
2022-08-05T13:51:36.460Z,1.50
2022-08-05T13:53:47.703Z,1.30
2022-08-05T13:55:57.648Z,0.90
2022-08-05T13:58:07.379Z,1.30
2022-08-05T14:00:17.710Z,0.90
2022-08-05T14:02:26.535Z,0.90
2022-08-05T14:05:06.102Z,1.40
2022-08-05T14:07:56.853Z,1.20
2022-08-05T14:09:47.842Z,1.60
2022-08-05T14:12:18.117Z,1.10
2022-08-05T14:14:58.049Z,1.10
2022-08-05T14:17:06.018Z,1.10
2022-08-05T14:19:27.609Z,1.00
2022-08-05T14:22:09.021Z,1.20
2022-08-05T14:24:13.550Z,1.10
2022-08-05T14:26:36.936Z,1.20
2022-08-05T14:31:54.423Z,1.70
2022-08-05T14:34:00.202Z,1.20
2022-08-05T14:36:07.833Z,1.20
2022-08-05T14:38:32.979Z,1.40
2022-08-05T14:40:40.704Z,1.50
2022-08-05T14:43:11.107Z,1.80
2022-08-05T14:45:20.566Z,1.70
2022-08-05T14:48:02.745Z,1.80
2022-08-05T14:50:30.583Z,1.80
2022-08-05T14:52:52.960Z,1.70
2022-08-05T14:55:57.350Z,1.60
2022-08-05T14:58:24.253Z,1.60
2022-08-05T15:01:06.999Z,1.70
2022-08-05T15:03:26.668Z,1.50
2022-08-05T15:06:07.890Z,1.20
2022-08-05T15:08:58.500Z,2.00
2022-08-05T15:11:51.388Z,1.70
2022-08-05T15:14:48.365Z,1.20
2022-08-05T15:17:46.221Z,1.10
2022-08-05T15:20:02.230Z,1.60
2022-08-05T15:22:09.943Z,1.10
2022-08-05T15:24:20.050Z,1.40
2022-08-05T15:26:39.552Z,1.10
2022-08-05T15:28:51.970Z,1.40
2022-08-05T15:31:05.983Z,0.90
2022-08-05T15:34:05.113Z,1.20
2022-08-05T15:36:16.759Z,1.20
2022-08-05T15:38:35.779Z,0.90
2022-08-05T15:41:03.540Z,1.00
2022-08-05T15:43:26.505Z,1.20
2022-08-05T15:46:18.134Z,1.10
2022-08-05T15:48:24.881Z,1.10
2022-08-05T15:50:53.217Z,1.30
2022-08-05T15:53:23.546Z,1.00
2022-08-05T15:56:24.815Z,1.30
2022-08-05T15:59:21.700Z,1.20
2022-08-05T16:04:49.341Z,0.70
2022-08-05T16:07:23.115Z,1.00
2022-08-05T16:09:42.233Z,0.90
2022-08-05T16:11:58.604Z,0.90
2022-08-05T16:14:28.914Z,1.10
2022-08-05T16:17:00.150Z,0.90
2022-08-05T16:20:11.681Z,1.20
2022-08-05T16:22:43.035Z,0.60
2022-08-05T16:25:09.501Z,1.60
2022-08-05T16:27:32.246Z,1.30
2022-08-05T16:30:26.337Z,1.00
2022-08-05T16:33:28.817Z,0.70
2022-08-05T16:36:09.325Z,0.90
2022-08-05T16:38:25.348Z,1.20
2022-08-05T16:42:13.616Z,0.90
2022-08-05T16:44:33.319Z,0.90
2022-08-05T16:47:07.539Z,1.20
2022-08-05T16:49:54.367Z,1.10
2022-08-05T16:52:17.382Z,1.00
2022-08-05T16:54:38.162Z,0.90
2022-08-05T16:57:50.486Z,0.80
2022-08-05T17:00:34.471Z,0.90
2022-08-05T17:02:49.548Z,0.90
2022-08-05T17:05:54.299Z,0.70
2022-08-05T17:08:52.423Z,1.00
2022-08-05T17:11:16.582Z,0.80
2022-08-05T17:13:41.503Z,0.90
2022-08-05T17:16:28.056Z,0.70
2022-08-05T17:19:36.518Z,1.00
2022-08-05T17:22:25.353Z,1.10
2022-08-05T17:24:58.160Z,0.80
2022-08-05T17:27:11.397Z,0.80
2022-08-05T17:29:52.744Z,0.70
2022-08-05T17:32:46.638Z,0.80
2022-08-05T17:35:03.065Z,0.80
2022-08-05T17:37:45.539Z,0.80
2022-08-05T17:40:13.475Z,0.80
2022-08-05T17:45:49.293Z,0.60
2022-08-05T17:48:05.785Z,0.80
2022-08-05T17:50:32.253Z,0.90
2022-08-05T17:53:00.968Z,0.80
2022-08-05T17:55:22.308Z,0.60
2022-08-05T17:57:57.168Z,0.60
2022-08-05T18:00:35.772Z,1.30
2022-08-05T18:03:01.912Z,0.70
2022-08-05T18:06:11.733Z,0.50
2022-08-05T18:08:44.789Z,0.80
2022-08-05T18:11:04.885Z,0.70
2022-08-05T18:13:44.324Z,0.60
2022-08-05T18:16:31.397Z,0.60
2022-08-05T18:19:22.994Z,0.60
2022-08-05T18:22:07.592Z,0.70
2022-08-05T18:24:26.731Z,0.80
2022-08-05T18:26:41.109Z,0.80
2022-08-05T18:29:42.123Z,0.80
2022-08-05T18:32:07.469Z,0.60
2022-08-05T18:34:40.843Z,0.60
2022-08-05T18:37:03.119Z,0.70
2022-08-05T18:40:34.663Z,0.70
2022-08-05T18:42:46.650Z,0.70
2022-08-05T18:45:03.722Z,0.60
2022-08-05T18:47:14.895Z,0.90
2022-08-05T18:50:03.349Z,0.40
2022-08-05T18:52:50.959Z,0.70
2022-08-05T18:55:02.510Z,0.60
2022-08-05T18:57:24.024Z,0.60
2022-08-05T18:59:42.873Z,0.50
2022-08-05T19:01:59.196Z,0.70
2022-08-05T19:05:01.245Z,0.60
2022-08-05T19:07:48.295Z,0.50
2022-08-05T19:10:31.420Z,0.60
2022-08-05T19:12:41.516Z,0.80
2022-08-05T19:15:54.639Z,0.80
2022-08-05T19:18:10.207Z,0.70
2022-08-05T19:20:20.525Z,0.70
2022-08-05T19:23:01.014Z,0.60
2022-08-05T19:25:43.992Z,0.90
2022-08-05T19:28:15.587Z,0.40
2022-08-05T19:30:38.738Z,0.60
2022-08-05T19:33:35.903Z,0.70
2022-08-05T19:35:58.235Z,0.60
2022-08-05T19:38:39.627Z,0.60
2022-08-05T19:41:17.653Z,0.50
2022-08-05T19:44:12.806Z,0.60
2022-08-05T19:47:11.642Z,0.50
2022-08-05T19:50:35.708Z,0.40
2022-08-05T19:54:04.452Z,0.50
2022-08-05T19:56:14.201Z,0.40
2022-08-05T19:58:53.717Z,0.40
2022-08-05T20:01:12.396Z,0.50
2022-08-05T20:04:22.502Z,0.60
2022-08-05T20:06:45.990Z,0.40
2022-08-05T20:09:55.021Z,0.40
2022-08-05T20:12:47.597Z,0.60
2022-08-05T20:15:59.692Z,0.60
2022-08-05T20:18:45.140Z,0.80
2022-08-05T20:21:14.782Z,0.60
2022-08-05T20:24:19.117Z,0.50
2022-08-05T20:26:52.082Z,0.50
2022-08-05T20:29:39.590Z,0.70
2022-08-05T20:32:30.564Z,0.80
2022-08-05T20:35:02.870Z,0.40
2022-08-05T20:38:05.610Z,0.60
2022-08-05T20:41:04.602Z,0.50
2022-08-05T20:44:00.087Z,0.40
2022-08-05T20:47:07.456Z,0.40
2022-08-05T20:50:17.507Z,0.50
2022-08-05T20:52:35.223Z,0.40
2022-08-05T20:55:55.378Z,0.50
2022-08-05T20:57:56.355Z,0.50
2022-08-05T21:00:49.533Z,0.40
2022-08-05T21:03:16.734Z,0.60
2022-08-05T21:06:27.792Z,0.50
2022-08-05T21:09:53.648Z,0.60
2022-08-05T21:12:27.190Z,0.40
2022-08-05T21:14:40.705Z,0.50
2022-08-05T21:17:15.206Z,0.40
2022-08-05T21:19:47.468Z,0.50
2022-08-05T21:22:50.266Z,0.60
2022-08-05T21:24:59.364Z,0.50
2022-08-05T21:27:06.166Z,0.50
2022-08-05T21:29:16.841Z,0.40
2022-08-05T21:31:46.439Z,0.50
2022-08-05T21:34:16.895Z,0.40
2022-08-05T21:37:00.407Z,0.50
2022-08-05T21:39:34.812Z,0.50
2022-08-05T21:42:30.510Z,0.50
2022-08-05T21:44:55.117Z,0.40
2022-08-05T21:47:56.017Z,0.50
2022-08-05T21:50:22.211Z,1.10
2022-08-05T21:53:17.867Z,0.60
2022-08-05T21:56:04.248Z,0.50
2022-08-05T21:58:10.308Z,0.50
2022-08-05T22:00:37.432Z,0.70
2022-08-05T22:03:56.236Z,0.30
2022-08-05T22:06:35.148Z,0.30
2022-08-05T22:09:23.993Z,0.50
2022-08-05T22:12:10.518Z,0.50
2022-08-05T22:15:56.537Z,0.40
2022-08-05T22:18:36.740Z,0.50
2022-08-05T22:21:19.535Z,0.60
2022-08-05T22:24:09.178Z,0.50
2022-08-05T22:26:50.747Z,0.60
2022-08-05T22:29:33.011Z,0.40
2022-08-05T22:32:33.039Z,0.40
2022-08-05T22:34:49.376Z,0.50
2022-08-05T22:37:58.163Z,0.40
2022-08-05T22:40:00.411Z,0.40
2022-08-05T22:42:12.385Z,0.50
2022-08-05T22:44:53.774Z,0.60
2022-08-05T22:47:29.441Z,0.40
2022-08-05T22:50:22.803Z,0.50
2022-08-05T22:53:18.799Z,0.40
2022-08-05T22:55:57.062Z,0.40
2022-08-05T22:58:31.900Z,0.40
2022-08-05T23:00:52.424Z,0.40
2022-08-05T23:04:04.010Z,0.40
2022-08-05T23:06:35.865Z,0.50
2022-08-05T23:08:43.027Z,0.50
2022-08-05T23:11:09.842Z,0.70
2022-08-05T23:13:43.495Z,0.50
2022-08-05T23:16:34.468Z,0.40
2022-08-05T23:19:11.664Z,0.50
2022-08-05T23:22:15.361Z,0.40
2022-08-05T23:24:48.488Z,0.60
2022-08-05T23:27:21.231Z,0.40
2022-08-05T23:30:03.146Z,0.40
2022-08-05T23:32:48.498Z,0.40
2022-08-05T23:35:12.583Z,0.50
2022-08-05T23:37:43.672Z,0.30
2022-08-05T23:40:31.038Z,0.60
2022-08-05T23:43:11.521Z,0.40
2022-08-05T23:46:25.200Z,0.50
2022-08-05T23:49:00.236Z,0.70
2022-08-05T23:54:48.756Z,0.50
2022-08-05T23:57:59.985Z,0.40
